Aérodrome :
LOGIN :

S'inscrire | Disclaimer

   EN    FR    IT 

 










Légende :    VFR   VFR Marginal   IFR   IFR Intensif   IFR Très Intensif
Visi : 
Plafond : 
>= 8 km
>= 3000ft
5 à 8 km
1000 à 3000 ft
1500m à 5 km
500 à 1000 ft
800 à 1500m
200 à 500 ft
< 800m
< 200 ft
Symboles :   Orages  Brouillard  Fortes neiges  Fortes précipitations  Vent > 20 kt
SIGMETs :   Divers  Orages  Givrage  Turbulence  Onde Orograph.  Cendres Volcan.






- Altitude de l'aérodrome : 245 ft
- Code IATA : BIQ


LFBZ - Biarritz

DERNIER METAR :
  • 201130Z AUTO 06009KT CAVOK 03/M00 Q1035 NOSIG

METARs EXPIRÉS :
  • 201100Z AUTO 06008KT 9999 FEW017 03/M00 Q1035 NOSIG
  • 201030Z AUTO 09011KT 050V110 CAVOK 03/00 Q1036 NOSIG
  • 201000Z AUTO 08009KT CAVOK 02/M00 Q1036 NOSIG
  • 200930Z AUTO 09008KT CAVOK 02/M00 Q1036 NOSIG
  • 200900Z AUTO 09007KT CAVOK 01/M01 Q1036 NOSIG

TAF TAF LFBZ
Valide du 20 à 12h jusqu'au 21 à 12h UTC


201100Z 2012/2112 09010KT CAVOK
PROB30
TEMPO 2012/2014 SCT010
BECMG 2106/2108 BKN010



MET'MAP, la Météo Aéronautique d'un coup d'oeil ! - Copyright ORBIFLY Décembre 2007 - Disclaimer

ORBIFLY MET'MAP TEAM :

Programmation & Développement : Alexandra Zaïnal
Sur une idée originale de : Baudouin d'Aumeries
Assistance à la programmation : Marc-Olivier Méhu
Soutien technique & logistique : Manuel Goepfert

Contact : metmap@orbifly.com




SOURCES & CREDITS :

   NOAA